Time;durP1;ratioP1;P1;durP2;ratioP2;P2;SDS_P1;SDS_P2;PMS_P1;PMS_P2;Temp;Humidity;BMP_temperature;BMP_pressure;BME280_temperature;BME280_humidity;BME280_pressure;Samples;Min_cycle;Max_cycle;Signal;HPM_P1;HPM_P2
2023/03/05 00:01:39;;;;;;;13.43;5.47;;;7.90;99.90;;;7.98;73.89;102189.25;5033963;28;20045;-69
2023/03/05 00:04:14;;;;;;;8.80;4.47;;;7.70;99.90;;;8.25;74.15;102212.84;5033316;28;20120;-69
2023/03/05 00:06:43;;;;;;;11.38;5.43;;;7.90;99.90;;;8.36;74.46;102182.41;5033978;28;20049;-69
2023/03/05 00:09:11;;;;;;;14.90;5.63;;;8.00;99.90;;;8.37;74.50;102175.34;5033325;28;20180;-69
2023/03/05 00:11:39;;;;;;;11.82;5.50;;;8.10;99.90;;;8.41;74.61;102164.03;5033184;28;20041;-69
2023/03/05 00:14:08;;;;;;;10.80;4.68;;;8.10;99.90;;;8.46;74.35;102163.28;5033166;28;20464;-69
2023/03/05 00:16:36;;;;;;;13.48;5.38;;;8.20;99.90;;;7.85;74.04;102055.44;5033086;28;20129;-69
2023/03/05 00:19:05;;;;;;;15.45;5.47;;;8.20;99.90;;;8.43;74.23;102157.06;5033024;28;20041;-69
2023/03/05 00:21:37;;;;;;;10.02;5.03;;;8.20;99.90;;;8.46;74.48;102163.28;5033067;28;20044;-69
2023/03/05 00:24:11;;;;;;;14.10;5.10;;;8.20;99.90;;;8.41;74.27;102145.59;5033043;28;20128;-69
2023/03/05 00:26:39;;;;;;;14.60;5.25;;;8.20;99.90;;;8.34;74.72;102136.66;5032944;28;20611;-69
2023/03/05 00:29:18;;;;;;;11.63;5.40;;;8.10;99.90;;;8.50;74.39;102159.88;5032874;28;20451;-69
2023/03/05 00:31:46;;;;;;;13.18;5.63;;;8.20;99.90;;;8.43;74.45;102157.06;5033260;28;20103;-69
2023/03/05 00:34:18;;;;;;;13.02;5.63;;;8.20;99.90;;;8.42;74.51;102150.88;5033418;28;20447;-69
2023/03/05 00:36:51;;;;;;;12.10;5.95;;;8.10;99.90;;;8.42;74.60;102144.75;5032916;28;20071;-69
2023/03/05 00:39:21;;;;;;;15.23;5.50;;;8.20;99.90;;;8.31;74.86;102151.47;5032969;28;20042;-69
2023/03/05 00:41:50;;;;;;;13.30;5.03;;;8.00;99.90;;;8.23;75.78;102138.97;5033054;28;20467;-68
2023/03/05 00:44:18;;;;;;;9.80;4.65;;;8.00;99.90;;;8.29;75.61;102140.91;5032681;28;20469;-69
2023/03/05 00:46:47;;;;;;;11.93;5.20;;;8.00;99.90;;;8.20;76.07;102138.91;5031488;28;20057;-68
2023/03/05 00:49:15;;;;;;;7.30;4.80;;;7.90;99.90;;;8.04;76.26;102114.75;5048170;28;20050;-69
2023/03/05 00:51:44;;;;;;;11.52;4.97;;;7.80;99.90;;;8.17;76.25;102128.28;5033100;28;20137;-69
2023/03/05 00:54:13;;;;;;;10.45;5.50;;;7.80;99.90;;;8.11;76.79;102117.56;5032901;28;20463;-69
2023/03/05 00:56:42;;;;;;;8.50;5.27;;;7.80;99.90;;;8.19;76.66;102121.28;5032785;28;20095;-69
2023/03/05 00:59:10;;;;;;;9.35;5.07;;;7.90;99.90;;;8.20;76.74;102112.56;5031403;28;20038;-69
2023/03/05 01:01:39;;;;;;;12.90;5.03;;;7.90;99.90;;;8.19;76.62;102121.28;5032767;28;20055;-69
2023/03/05 01:04:08;;;;;;;12.10;5.57;;;7.90;99.90;;;8.26;76.73;102110.94;5032650;28;20040;-69
2023/03/05 01:06:41;;;;;;;15.02;5.65;;;8.00;99.90;;;8.34;75.98;102119.94;5032357;28;20045;-69
2023/03/05 01:09:09;;;;;;;10.57;6.00;;;8.10;99.90;;;8.35;76.19;102116.44;5032752;28;20068;-69
2023/03/05 01:11:40;;;;;;;13.43;5.32;;;8.10;99.90;;;8.35;76.58;102116.44;5031384;28;20487;-69
2023/03/05 01:14:09;;;;;;;11.25;4.78;;;8.10;99.90;;;8.40;76.35;102112.19;5031089;28;20052;-69
2023/03/05 01:16:37;;;;;;;11.38;5.00;;;8.20;99.90;;;8.35;76.61;102111.16;5031259;28;20064;-70
2023/03/05 01:19:05;;;;;;;9.13;4.75;;;8.10;99.90;;;8.27;76.81;102107.44;5032552;28;20042;-69
2023/03/05 01:21:35;;;;;;;8.13;4.85;;;8.00;99.90;;;8.29;76.89;102100.47;5047889;28;20045;-69
2023/03/05 01:24:04;;;;;;;10.18;5.05;;;8.00;99.90;;;8.22;76.35;102073.06;5047811;28;20065;-69
2023/03/05 01:26:32;;;;;;;14.15;5.43;;;8.10;99.90;;;8.37;75.94;102093.63;5031153;28;20127;-68
2023/03/05 01:29:02;;;;;;;9.45;5.05;;;8.10;99.90;;;8.31;75.86;102094.38;5032502;28;20046;-69
2023/03/05 01:31:31;;;;;;;8.63;5.60;;;8.10;99.90;;;8.23;75.34;102080.97;5032263;28;20076;-69
2023/03/05 01:34:00;;;;;;;13.55;6.20;;;8.10;99.90;;;8.22;75.01;102083.59;5031181;28;20049;-69
2023/03/05 01:36:29;;;;;;;11.25;5.63;;;8.00;99.90;;;8.23;74.66;102072.19;5031381;28;20100;-69
2023/03/05 01:38:57;;;;;;;11.05;5.70;;;8.00;99.90;;;8.19;74.55;102081.75;5032333;28;20053;-69
2023/03/05 01:41:26;;;;;;;9.50;5.03;;;7.90;99.90;;;8.14;74.61;102077.22;5032173;28;20088;-69
2023/03/05 01:43:54;;;;;;;11.00;6.07;;;7.90;99.90;;;8.14;74.31;102074.59;5032377;28;20042;-69
2023/03/05 01:46:31;;;;;;;10.18;6.38;;;7.90;99.90;;;8.12;73.80;102069.31;5030621;28;20037;-68
2023/03/05 01:49:06;;;;;;;13.15;5.50;;;7.90;99.90;;;8.14;74.16;102066.69;5032370;28;20057;-68
2023/03/05 01:51:41;;;;;;;10.80;5.53;;;7.90;99.90;;;8.14;73.81;102057.06;5032325;28;20146;-69
2023/03/05 01:54:11;;;;;;;10.25;5.43;;;7.90;99.90;;;8.21;73.77;102055.44;5030996;28;20056;-69
2023/03/05 01:56:40;;;;;;;10.13;4.93;;;7.90;99.90;;;8.19;73.62;102057.16;5031969;28;20053;-69
2023/03/05 01:59:10;;;;;;;10.57;5.45;;;7.90;99.90;;;8.14;73.67;102043.88;5031879;28;20558;-69
2023/03/05 02:01:44;;;;;;;9.32;4.80;;;7.90;99.90;;;8.13;73.48;102036.81;5030859;28;20049;-69
2023/03/05 02:04:17;;;;;;;14.85;6.22;;;7.90;99.90;;;8.14;73.64;102037.72;5031960;28;20129;-69
2023/03/05 02:06:46;;;;;;;9.05;5.72;;;7.80;99.90;;;8.00;73.99;102003.13;5047469;28;20049;-69
2023/03/05 02:09:15;;;;;;;8.82;5.75;;;7.90;99.90;;;8.14;74.08;102029.81;5032395;28;20079;-69
2023/03/05 02:11:43;;;;;;;14.27;5.88;;;7.80;99.90;;;8.10;74.17;102015.66;5047356;28;20057;-70
2023/03/05 02:14:12;;;;;;;10.85;5.18;;;7.80;99.90;;;8.12;74.09;102021.88;5032049;28;20075;-69
2023/03/05 02:16:43;;;;;;;13.02;6.13;;;7.80;99.90;;;8.09;74.11;102016.50;5035017;28;20049;-69
2023/03/05 02:19:12;;;;;;;11.63;5.93;;;7.80;99.90;;;8.13;74.09;102015.72;5034223;28;20048;-70
2023/03/05 02:21:46;;;;;;;9.60;5.70;;;7.80;99.90;;;8.03;74.29;101986.50;5034257;28;20136;-69
2023/03/05 02:24:18;;;;;;;11.73;5.75;;;7.80;99.90;;;8.15;74.09;102002.59;5050929;28;20408;-69
2023/03/05 02:26:47;;;;;;;14.68;5.82;;;7.90;99.90;;;7.90;76.00;102001.13;5034220;28;20049;-69
2023/03/05 02:29:19;;;;;;;9.77;4.85;;;7.60;99.90;;;7.70;77.44;101990.94;5035368;28;20041;-69
2023/03/05 02:31:47;;;;;;;9.88;4.78;;;7.50;99.90;;;7.60;79.31;101994.19;5035469;28;20048;-69
2023/03/05 02:34:16;;;;;;;9.90;4.70;;;7.30;99.90;;;7.45;80.89;101989.44;5035601;28;20053;-69
2023/03/05 02:36:45;;;;;;;11.55;4.82;;;7.10;99.90;;;7.58;81.76;101985.38;5035021;28;20056;-69
2023/03/05 02:39:14;;;;;;;14.77;5.57;;;7.20;99.90;;;7.52;82.41;101980.84;5033986;28;20049;-70
2023/03/05 02:41:43;;;;;;;12.25;5.00;;;7.20;99.90;;;7.48;83.36;101963.19;5033893;28;20492;-69
2023/03/05 02:44:12;;;;;;;15.13;4.90;;;7.20;99.90;;;7.63;83.62;101976.72;5033823;28;20439;-69
2023/03/05 02:46:40;;;;;;;11.23;5.00;;;7.30;99.90;;;7.64;83.30;101975.88;5034848;28;20041;-70
2023/03/05 02:49:09;;;;;;;10.35;4.95;;;7.30;99.90;;;7.64;83.96;101981.16;5034835;28;20580;-69
2023/03/05 02:51:37;;;;;;;7.80;4.50;;;7.30;99.90;;;7.61;83.59;101962.63;5034743;28;20069;-69
2023/03/05 02:54:08;;;;;;;10.32;4.45;;;7.30;99.90;;;7.72;83.86;101965.53;5033631;28;20136;-69
2023/03/05 02:56:37;;;;;;;9.10;4.63;;;7.40;99.90;;;7.76;83.91;101970.03;5034938;28;20042;-69
2023/03/05 02:59:05;;;;;;;11.75;4.78;;;7.40;99.90;;;7.81;84.07;101971.03;5033201;28;20049;-69
2023/03/05 03:01:34;;;;;;;9.88;4.68;;;7.50;99.90;;;7.82;83.87;101964.94;5033473;28;20053;-69
2023/03/05 03:04:03;;;;;;;12.18;4.90;;;7.50;99.90;;;7.86;83.49;101964.13;5034718;28;20045;-69
2023/03/05 03:06:31;;;;;;;10.15;4.93;;;7.50;99.90;;;7.92;82.89;101951.09;5034981;28;20556;-69
2023/03/05 03:08:59;;;;;;;8.38;4.75;;;7.70;99.90;;;8.08;82.30;101959.41;5034399;28;20045;-68
2023/03/05 03:11:29;;;;;;;7.82;4.40;;;7.80;99.90;;;7.98;81.61;101952.13;5034385;28;20037;-68
2023/03/05 03:13:59;;;;;;;10.48;4.93;;;7.80;99.90;;;8.18;81.32;101942.06;5034327;28;20049;-69
2023/03/05 03:16:27;;;;;;;10.43;4.90;;;7.90;99.90;;;8.19;80.99;101946.47;5034934;28;20049;-69
2023/03/05 03:18:56;;;;;;;10.77;4.95;;;8.00;99.90;;;8.21;80.70;101940.38;5034250;28;20141;-69
2023/03/05 03:21:26;;;;;;;8.73;4.63;;;8.00;99.90;;;8.23;80.58;101935.13;5034406;28;20045;-69
2023/03/05 03:23:54;;;;;;;13.00;4.93;;;8.00;99.90;;;8.20;80.77;101935.97;5034180;28;20041;-70
2023/03/05 03:26:22;;;;;;;8.65;4.78;;;8.00;99.90;;;7.84;80.64;101865.78;5033262;28;20064;-69
2023/03/05 03:28:52;;;;;;;8.82;4.53;;;8.00;99.90;;;8.20;80.21;101930.72;5033810;28;20052;-69
2023/03/05 03:31:20;;;;;;;8.18;4.80;;;8.00;99.90;;;8.15;79.98;101926.16;5033987;28;20124;-69
2023/03/05 03:33:49;;;;;;;8.13;4.57;;;7.90;99.90;;;8.13;80.31;101926.13;5034352;28;20091;-69
2023/03/05 03:36:17;;;;;;;9.80;4.47;;;7.90;99.90;;;8.17;80.14;101928.00;5033887;28;20082;-69
2023/03/05 03:38:46;;;;;;;7.18;4.28;;;7.90;99.90;;;8.06;80.92;101923.34;5033819;28;20092;-69
2023/03/05 03:41:14;;;;;;;6.25;4.45;;;7.80;99.90;;;8.13;81.00;101933.13;5034008;28;20046;-69
2023/03/05 03:43:42;;;;;;;6.22;4.22;;;7.90;99.90;;;7.95;80.92;101923.09;5033696;28;20492;-69
2023/03/05 03:46:12;;;;;;;7.47;4.43;;;7.80;99.90;;;7.77;82.61;101922.66;5033920;28;20043;-69
2023/03/05 03:48:40;;;;;;;6.43;4.35;;;7.50;99.90;;;7.94;82.09;101917.78;5033459;28;20115;-70
2023/03/05 03:51:09;;;;;;;8.98;4.80;;;7.70;99.90;;;7.77;82.16;101913.88;5033633;28;20141;-69
2023/03/05 03:53:37;;;;;;;5.05;4.30;;;7.60;99.90;;;7.76;82.34;101912.97;5033464;28;20050;-69
2023/03/05 03:56:06;;;;;;;4.93;4.32;;;7.50;99.90;;;7.70;82.38;101912.84;5033424;28;20069;-69
2023/03/05 03:58:35;;;;;;;6.57;4.50;;;7.40;99.90;;;7.65;82.23;101901.28;5033428;28;20038;-69
2023/03/05 04:01:03;;;;;;;5.25;4.55;;;7.40;99.90;;;7.62;82.82;101901.25;5033342;28;20045;-69
2023/03/05 04:03:33;;;;;;;4.38;4.07;;;7.30;99.90;;;7.66;82.65;101900.47;5033853;28;20072;-69
2023/03/05 04:06:01;;;;;;;6.33;4.33;;;7.30;99.90;;;7.64;82.18;101890.75;5033341;28;20498;-69
2023/03/05 04:08:30;;;;;;;5.53;4.30;;;7.30;99.90;;;7.68;82.09;101888.22;5033288;28;20084;-71
2023/03/05 04:11:00;;;;;;;4.88;4.07;;;7.40;99.90;;;7.78;81.79;101889.31;5033237;28;20115;-69
2023/03/05 04:13:28;;;;;;;7.72;4.43;;;7.40;99.90;;;7.76;81.48;101889.25;5033184;28;20148;-69
2023/03/05 04:15:58;;;;;;;8.73;4.65;;;7.50;99.90;;;7.81;81.12;101890.28;5033154;28;20045;-69
2023/03/05 04:18:26;;;;;;;4.38;3.97;;;7.50;99.90;;;7.87;80.58;101882.53;5031718;28;20107;-70
2023/03/05 04:20:56;;;;;;;5.28;4.78;;;7.60;99.90;;;7.87;80.14;101874.63;5033304;28;20477;-69
2023/03/05 04:23:25;;;;;;;4.90;4.27;;;7.60;99.90;;;7.87;79.71;101876.34;5033610;28;20075;-69
2023/03/05 04:25:53;;;;;;;5.28;4.40;;;7.60;99.90;;;7.89;79.99;101872.91;5033076;28;20037;-69
2023/03/05 04:28:21;;;;;;;7.72;4.63;;;7.60;99.90;;;7.76;79.83;101864.69;5033175;28;20042;-69
2023/03/05 04:30:50;;;;;;;7.68;4.28;;;7.50;99.90;;;7.72;80.03;101874.28;5033163;28;20046;-69
2023/03/05 04:33:19;;;;;;;7.22;3.67;;;7.50;99.90;;;7.72;80.50;101873.38;5032807;28;20103;-69
2023/03/05 04:35:47;;;;;;;6.43;3.95;;;7.50;99.90;;;7.70;80.49;101864.56;5033090;28;20120;-69
2023/03/05 04:38:17;;;;;;;5.32;4.22;;;7.40;99.90;;;7.58;81.07;101865.16;5032462;28;20091;-69
2023/03/05 04:40:46;;;;;;;4.20;3.80;;;7.30;99.90;;;7.11;82.15;101865.72;5032631;28;20064;-69
2023/03/05 04:43:14;;;;;;;5.93;4.63;;;7.00;99.90;;;6.84;84.54;101891.31;5032990;28;20049;-69
2023/03/05 04:45:43;;;;;;;5.72;4.40;;;6.60;99.90;;;6.70;86.09;101854.13;5032649;28;20068;-69
2023/03/05 04:48:12;;;;;;;7.15;3.78;;;6.50;99.90;;;6.93;86.00;101852.13;5031350;28;20144;-69
2023/03/05 04:50:41;;;;;;;7.70;4.03;;;6.50;99.90;;;6.82;86.62;101853.56;5032571;28;20404;-70
2023/03/05 04:53:09;;;;;;;5.93;3.95;;;6.50;99.90;;;6.84;86.20;101842.25;5032805;28;20041;-69
2023/03/05 04:55:39;;;;;;;9.57;4.38;;;6.50;99.90;;;6.89;85.82;101843.25;5032497;28;20064;-69
2023/03/05 04:58:07;;;;;;;7.83;4.53;;;6.60;99.90;;;6.84;85.78;101847.50;5032551;28;20065;-69
2023/03/05 05:00:35;;;;;;;6.32;4.20;;;6.60;99.90;;;6.97;85.57;101846.06;5032905;28;20310;-69
2023/03/05 05:03:04;;;;;;;7.28;3.90;;;6.60;99.90;;;7.01;85.35;101843.56;5032426;28;20049;-68
2023/03/05 05:05:33;;;;;;;4.95;4.22;;;6.70;99.90;;;7.05;85.08;101839.25;5032423;28;20056;-69
2023/03/05 05:08:01;;;;;;;4.43;3.95;;;6.70;99.90;;;7.16;84.77;101832.56;5032641;28;20087;-69
2023/03/05 05:10:30;;;;;;;6.07;3.72;;;6.80;99.90;;;7.11;84.34;101823.63;5032392;28;20033;-69
2023/03/05 05:13:00;;;;;;;4.68;3.90;;;6.80;99.90;;;7.15;84.01;101817.59;5032408;28;20052;-69
2023/03/05 05:15:28;;;;;;;5.37;4.40;;;6.90;99.90;;;7.16;83.62;101825.53;5032318;28;20499;-69
2023/03/05 05:17:56;;;;;;;4.80;4.30;;;6.90;99.90;;;7.23;83.43;101816.06;5032354;28;20083;-69
2023/03/05 05:20:24;;;;;;;5.70;3.78;;;6.90;99.90;;;7.23;82.89;101823.94;5032230;28;20052;-69
2023/03/05 05:22:53;;;;;;;6.07;4.95;;;7.00;99.90;;;7.23;82.65;101816.94;5032517;28;20042;-69
2023/03/05 05:25:21;;;;;;;6.30;3.83;;;6.90;99.90;;;7.24;82.60;101818.72;5032289;28;20582;-69
2023/03/05 05:27:49;;;;;;;4.28;3.92;;;7.00;99.90;;;7.15;82.68;101807.06;5032230;28;20034;-69
2023/03/05 05:30:19;;;;;;;4.53;4.13;;;6.90;99.90;;;7.19;82.70;101812.47;5032191;28;20124;-68
2023/03/05 05:32:47;;;;;;;5.40;3.83;;;6.90;99.90;;;7.14;82.42;101803.56;5032248;28;20479;-69
2023/03/05 05:35:16;;;;;;;5.25;4.00;;;6.80;99.90;;;7.13;82.17;101803.53;5032405;28;20427;-69
2023/03/05 05:37:44;;;;;;;5.05;4.30;;;6.80;99.90;;;7.10;82.52;101799.06;5032644;28;20055;-68
2023/03/05 05:40:13;;;;;;;4.65;4.18;;;6.80;99.90;;;7.03;82.17;101788.34;5032743;28;20084;-69
2023/03/05 05:42:42;;;;;;;5.32;4.82;;;6.80;99.90;;;7.00;82.40;101793.56;5032353;28;20392;-68
2023/03/05 05:45:11;;;;;;;7.22;4.50;;;6.70;99.90;;;7.05;82.53;101797.19;5032026;28;20127;-69
2023/03/05 05:47:42;;;;;;;4.50;4.07;;;6.80;99.90;;;7.00;82.64;101799.72;5030535;28;20073;-68
2023/03/05 05:50:11;;;;;;;5.47;4.50;;;6.70;99.90;;;7.08;83.16;101792.00;5032907;28;20041;-69
2023/03/05 05:52:40;;;;;;;6.30;4.18;;;6.80;99.90;;;7.06;82.99;101798.97;5035801;28;20038;-69
2023/03/05 05:55:10;;;;;;;5.22;4.15;;;6.80;99.90;;;7.02;83.15;101791.84;5035776;28;20053;-69
2023/03/05 05:57:39;;;;;;;7.18;4.25;;;6.80;99.90;;;6.49;82.92;101690.63;5036055;28;20124;-69
2023/03/05 06:00:12;;;;;;;5.97;4.47;;;6.80;99.90;;;7.11;83.02;101792.06;5036021;28;20383;-69
2023/03/05 06:02:43;;;;;;;4.68;4.28;;;6.80;99.90;;;7.06;83.63;101783.19;5034341;28;20050;-69
2023/03/05 06:05:14;;;;;;;5.10;4.63;;;6.80;99.90;;;7.04;83.64;101785.78;5036226;28;20052;-69
2023/03/05 06:07:43;;;;;;;5.93;4.40;;;6.80;99.90;;;7.07;83.36;101792.84;5035679;28;20072;-69
2023/03/05 06:10:12;;;;;;;6.35;4.53;;;6.80;99.90;;;7.01;83.38;101793.59;5035588;28;20037;-69
2023/03/05 06:12:40;;;;;;;6.43;4.90;;;6.70;99.90;;;7.05;83.97;101799.81;5035497;28;20042;-69
2023/03/05 06:15:10;;;;;;;8.95;4.47;;;6.70;99.90;;;6.96;83.61;101760.16;5035733;28;20041;-68
2023/03/05 06:17:38;;;;;;;6.22;4.40;;;6.90;99.90;;;7.23;83.40;101792.38;5035348;28;20528;-68
2023/03/05 06:20:09;;;;;;;9.20;4.22;;;6.90;99.90;;;7.28;82.83;101801.25;5035540;28;20053;-68
2023/03/05 06:22:39;;;;;;;5.63;4.40;;;7.00;99.90;;;7.35;82.98;101797.03;5035223;28;20052;-69
2023/03/05 06:25:10;;;;;;;5.18;4.07;;;7.10;99.90;;;7.26;82.56;101776.66;5035510;28;20049;-68
2023/03/05 06:27:38;;;;;;;4.65;4.22;;;7.10;99.90;;;7.44;81.82;101784.97;5035126;28;20045;-69
2023/03/05 06:30:08;;;;;;;5.50;4.13;;;7.20;99.90;;;7.46;80.88;101780.63;5035214;28;20049;-69
2023/03/05 06:32:37;;;;;;;6.72;3.72;;;7.30;99.90;;;7.27;81.02;101783.69;5035204;28;20050;-68
2023/03/05 06:35:08;;;;;;;5.57;4.00;;;7.10;99.90;;;7.35;80.63;101781.25;5035559;28;20061;-69
2023/03/05 06:37:36;;;;;;;;;;;7.10;99.90;;;7.31;79.75;101785.56;5035969;28;20132;-69
2023/03/05 06:40:06;;;;;;;4.05;3.75;;;7.10;99.90;;;7.15;79.70;101783.41;5035485;28;19928;-69
2023/03/05 06:42:35;;;;;;;4.25;3.83;;;6.90;99.90;;;7.12;80.13;101785.97;5034828;28;20045;-69
2023/03/05 06:45:05;;;;;;;5.65;3.95;;;6.90;99.90;;;7.08;79.45;101776.22;5034767;28;20084;-69
2023/03/05 06:47:33;;;;;;;3.97;3.67;;;6.80;99.90;;;7.07;79.86;101784.94;5035079;28;20064;-69
2023/03/05 06:50:02;;;;;;;5.50;4.18;;;6.70;99.90;;;7.00;80.26;101772.50;5034756;28;20129;-69
2023/03/05 06:52:32;;;;;;;6.28;4.35;;;6.70;99.90;;;7.03;80.11;101778.75;5034694;28;20116;-69
2023/03/05 06:55:00;;;;;;;6.60;4.37;;;6.70;99.90;;;7.03;80.19;101767.31;5035288;28;20120;-68
2023/03/05 06:57:28;;;;;;;4.78;4.38;;;6.80;99.90;;;7.04;80.52;101772.63;5034641;28;20460;-69
2023/03/05 06:59:57;;;;;;;6.50;4.07;;;6.70;99.90;;;7.10;81.08;101774.53;5034859;28;20084;-69
2023/03/05 07:02:25;;;;;;;6.40;3.92;;;6.70;99.90;;;7.16;80.99;101769.41;5034195;28;20048;-69
2023/03/05 07:04:54;;;;;;;4.47;3.97;;;6.80;99.90;;;7.24;81.01;101762.56;5034412;28;20103;-69
2023/03/05 07:07:22;;;;;;;6.20;4.20;;;6.90;99.90;;;7.32;80.57;101763.63;5034782;28;20073;-69
2023/03/05 07:09:52;;;;;;;8.00;4.15;;;7.00;99.90;;;7.31;81.11;101748.72;5035002;28;20051;-69
2023/03/05 07:12:20;;;;;;;6.40;4.22;;;7.00;99.90;;;7.46;80.85;101756.94;5034898;28;20041;-69
2023/03/05 07:14:49;;;;;;;6.35;4.43;;;7.10;99.90;;;7.51;80.80;101755.28;5034239;28;20116;-69
2023/03/05 07:17:17;;;;;;;14.73;4.93;;;7.10;99.90;;;7.46;81.45;101764.84;5034210;28;20033;-69
2023/03/05 07:19:46;;;;;;;4.18;3.70;;;7.20;99.90;;;7.61;81.08;101759.91;5034100;28;20041;-69
2023/03/05 07:22:15;;;;;;;6.15;4.70;;;7.30;99.90;;;7.54;80.85;101760.66;5034400;28;20528;-69
2023/03/05 07:24:43;;;;;;;7.00;4.13;;;7.20;99.90;;;7.60;81.13;101760.78;5034087;28;20044;-68
2023/03/05 07:27:13;;;;;;;7.85;3.90;;;7.30;99.90;;;7.63;81.04;101752.94;5034085;28;20068;-69
2023/03/05 07:29:41;;;;;;;7.33;4.07;;;7.30;99.90;;;7.78;80.46;101747.97;5034111;28;20046;-69
2023/03/05 07:32:09;;;;;;;5.10;4.65;;;7.40;99.90;;;7.76;80.73;101747.06;5033973;28;20295;-69
2023/03/05 07:34:38;;;;;;;4.97;4.25;;;7.50;99.90;;;7.64;81.11;101738.03;5033998;28;20381;-69
2023/03/05 07:37:06;;;;;;;6.00;4.30;;;7.40;99.90;;;7.71;80.74;101766.25;5033895;28;20077;-69
2023/03/05 07:39:35;;;;;;;5.03;4.25;;;7.50;99.90;;;7.86;81.51;101764.84;5032783;28;20084;-69
2023/03/05 07:42:03;;;;;;;5.95;4.10;;;7.50;99.90;;;8.01;80.91;101761.66;5034138;28;20076;-69
2023/03/05 07:44:50;;;;;;;8.75;4.00;;;7.70;99.90;;;7.89;79.55;101749.13;5032724;28;20099;-69
2023/03/05 07:47:18;;;;;;;7.22;4.20;;;7.60;99.90;;;7.80;79.25;101735.75;5033949;28;20057;-68
2023/03/05 07:49:46;;;;;;;5.30;3.75;;;7.70;99.90;;;7.91;79.54;101763.22;5033642;28;20128;-69
2023/03/05 07:52:15;;;;;;;9.52;4.93;;;7.70;99.90;;;7.54;81.08;101742.22;5033620;28;20065;-69
2023/03/05 07:54:43;;;;;;;6.45;4.68;;;7.50;99.90;;;7.54;82.48;101763.28;5033537;28;20051;-69
2023/03/05 07:57:13;;;;;;;7.28;4.70;;;7.30;99.90;;;7.44;83.04;101765.66;5033297;28;20049;-69
2023/03/05 07:59:41;;;;;;;8.55;4.38;;;7.20;99.90;;;7.32;83.80;101754.00;5033472;28;20061;-70
2023/03/05 08:02:13;;;;;;;6.25;4.47;;;7.10;99.90;;;7.58;83.90;101762.50;5033594;28;20096;-68
2023/03/05 08:04:42;;;;;;;7.85;4.40;;;7.20;99.90;;;7.40;84.58;101767.34;5033568;28;20041;-69
2023/03/05 08:07:10;;;;;;;7.13;4.13;;;7.20;99.90;;;7.58;84.81;101762.50;5033532;28;20069;-69
2023/03/05 08:09:38;;;;;;;8.05;4.65;;;7.30;99.90;;;7.46;85.73;101751.69;5033325;28;20050;-69
2023/03/05 08:12:08;;;;;;;6.57;4.65;;;7.20;99.90;;;7.35;86.04;101753.19;5033619;28;20116;-69
2023/03/05 08:14:37;;;;;;;8.32;4.65;;;7.10;99.90;;;7.38;86.97;101747.97;5032906;28;20041;-69
2023/03/05 08:17:07;;;;;;;6.47;5.07;;;7.10;99.90;;;7.43;86.78;101738.47;5031824;28;20488;-69
2023/03/05 08:19:36;;;;;;;4.93;4.10;;;7.10;99.90;;;7.41;86.90;101734.91;5033834;28;20037;-69
2023/03/05 08:22:05;;;;;;;4.43;4.03;;;7.10;99.90;;;7.47;87.23;101744.69;5033430;28;20073;-68
2023/03/05 08:24:33;;;;;;;7.45;5.07;;;7.20;99.90;;;7.52;87.77;101740.41;5032892;28;20280;-69
2023/03/05 08:27:01;;;;;;;5.20;4.70;;;7.20;99.90;;;7.40;88.07;101732.22;5032904;28;20400;-69
2023/03/05 08:29:30;;;;;;;6.25;4.28;;;7.10;99.90;;;7.59;88.22;101734.44;5031654;28;20143;-69
2023/03/05 08:31:58;;;;;;;5.10;4.50;;;7.30;99.90;;;7.63;87.76;101729.25;5033407;28;20116;-69
2023/03/05 08:34:27;;;;;;;7.85;4.45;;;7.30;99.90;;;7.76;87.21;101719.88;5032794;28;20516;-70
2023/03/05 08:36:57;;;;;;;10.65;4.88;;;7.50;99.90;;;7.83;86.62;101724.38;5033287;28;20056;-69
2023/03/05 08:39:25;;;;;;;5.80;4.40;;;7.50;99.90;;;7.75;86.10;101718.97;5032843;28;20045;-69
2023/03/05 08:41:54;;;;;;;4.80;3.67;;;7.60;99.90;;;7.66;85.90;101707.38;5032738;28;20033;-68
2023/03/05 08:44:22;;;;;;;6.32;4.18;;;7.40;99.90;;;7.81;86.06;101710.31;5032674;28;20048;-69
2023/03/05 08:46:51;;;;;;;5.43;4.30;;;7.50;99.90;;;7.29;84.71;101613.59;5031665;28;20041;-67
2023/03/05 08:49:19;;;;;;;7.35;4.50;;;7.60;99.90;;;7.94;84.93;101713.22;5033080;28;20075;-69
2023/03/05 08:51:48;;;;;;;8.13;3.90;;;7.60;99.90;;;7.98;84.70;101709.78;5032539;28;20037;-69
2023/03/05 08:54:18;;;;;;;5.80;4.68;;;7.70;99.90;;;8.10;84.61;101710.03;5032665;28;20046;-68
2023/03/05 08:56:48;;;;;;;6.20;4.07;;;7.80;99.90;;;8.23;84.50;101699.72;5032628;28;20049;-69
2023/03/05 08:59:17;;;;;;;8.60;4.87;;;8.00;99.90;;;8.25;83.30;101705.91;5032643;28;20171;-70
2023/03/05 09:01:46;;;;;;;6.68;4.22;;;8.00;99.90;;;8.28;83.12;101706.88;5032445;28;20045;-70
2023/03/05 09:04:15;;;;;;;8.88;4.78;;;8.00;99.90;;;8.07;82.98;101698.53;5032368;28;20514;-71
2023/03/05 09:06:43;;;;;;;6.53;4.40;;;7.90;99.90;;;7.90;82.67;101706.09;5032672;28;20072;-70
2023/03/05 09:09:12;;;;;;;11.43;4.97;;;7.80;99.90;;;7.85;82.55;101709.50;5032348;28;20056;-71
2023/03/05 09:11:42;;;;;;;10.18;3.80;;;7.80;99.90;;;8.11;82.60;101701.25;5032296;28;20045;-71
2023/03/05 09:14:10;;;;;;;7.83;4.00;;;7.90;99.90;;;8.27;83.04;101720.00;5032257;28;20045;-70
2023/03/05 09:16:40;;;;;;;8.57;4.20;;;8.00;99.90;;;8.31;82.35;101721.84;5032532;28;20288;-71
2023/03/05 09:19:11;;;;;;;5.25;4.13;;;8.10;99.90;;;8.38;81.56;101714.06;5032724;28;20091;-70
2023/03/05 09:21:39;;;;;;;5.60;3.50;;;8.20;99.90;;;8.40;81.70;101711.47;5032254;28;20100;-70
2023/03/05 09:24:08;;;;;;;5.85;4.25;;;8.20;99.90;;;8.52;81.84;101719.59;5048242;28;20044;-71
2023/03/05 09:26:36;;;;;;;5.13;3.80;;;8.30;99.90;;;8.77;82.26;101719.13;5036688;28;20060;-71
2023/03/05 09:29:07;;;;;;;4.15;3.78;;;8.50;99.90;;;9.02;81.60;101713.38;5036265;28;20045;-70
2023/03/05 09:31:36;;;;;;;7.55;3.65;;;8.80;99.90;;;9.30;80.16;101712.06;5036554;28;20534;-71
2023/03/05 09:34:06;;;;;;;4.80;3.20;;;9.10;99.90;;;9.55;78.96;101708.88;5036095;28;20044;-71
2023/03/05 09:36:34;;;;;;;4.67;3.70;;;9.30;99.90;;;9.77;77.28;101713.59;5036031;28;20052;-64
2023/03/05 09:39:05;;;;;;;3.58;3.28;;;9.60;99.90;;;10.10;77.12;101713.13;5036399;28;20143;-72
2023/03/05 09:41:59;;;;;;;4.00;3.67;;;9.90;99.90;;;10.28;75.25;101710.69;5036037;28;20099;-70
2023/03/05 09:44:41;;;;;;;4.05;3.75;;;10.10;99.90;;;10.44;74.00;101716.13;5035986;28;20095;-71
2023/03/05 09:47:27;;;;;;;4.00;3.50;;;10.30;99.90;;;10.56;72.62;101700.38;5035826;28;20038;-69
2023/03/05 09:50:03;;;;;;;5.18;3.80;;;10.40;99.90;;;10.64;71.66;101705.72;5036386;28;20049;-69
2023/03/05 09:52:42;;;;;;;5.18;3.75;;;10.40;99.90;;;10.50;70.65;101679.16;5035784;28;20033;-70
2023/03/05 09:55:18;;;;;;;5.53;3.70;;;10.50;99.90;;;10.75;70.42;101707.59;5035820;28;20432;-69
2023/03/05 09:57:53;;;;;;;4.50;3.30;;;10.60;99.90;;;10.74;69.61;101702.28;5035836;28;20075;-70
2023/03/05 10:00:34;;;;;;;6.47;3.70;;;10.50;99.90;;;10.62;69.45;101704.81;5035537;28;20415;-69
2023/03/05 10:03:12;;;;;;;5.82;4.13;;;10.50;99.90;;;10.54;69.46;101704.75;5035641;28;20041;-76
2023/03/05 10:05:53;;;;;;;5.07;3.92;;;10.40;99.90;;;10.65;70.42;101688.97;5035695;28;20063;-70
2023/03/05 10:08:27;;;;;;;;;;;10.50;99.90;;;10.15;70.30;101696.44;5035908;28;20120;-70
2023/03/05 10:10:55;;;;;;;5.57;3.55;;;10.10;99.90;;;10.07;70.80;101689.25;5035546;28;20012;-71
2023/03/05 10:13:27;;;;;;;6.93;3.92;;;9.90;99.90;;;9.90;71.45;101695.25;5036021;28;20045;-73
2023/03/05 10:16:06;;;;;;;7.28;3.78;;;9.70;99.90;;;10.23;72.11;101688.56;5035470;28;20060;-71
2023/03/05 10:18:41;;;;;;;7.57;3.97;;;9.90;99.90;;;10.35;70.89;101686.06;5035447;28;20045;-69
2023/03/05 10:21:13;;;;;;;4.55;3.80;;;10.10;99.90;;;10.23;69.98;101678.00;5035314;28;20074;-70
2023/03/05 10:24:03;;;;;;;7.28;3.90;;;10.00;99.90;;;10.32;69.71;101673.69;5035491;28;20366;-63
2023/03/05 10:26:49;;;;;;;5.22;3.92;;;10.10;99.90;;;10.16;69.44;101661.22;5035218;28;20038;-71
2023/03/05 10:29:38;;;;;;;4.70;3.85;;;10.00;99.90;;;10.64;69.03;101655.47;5035248;28;20455;-69
2023/03/05 10:32:34;;;;;;;6.55;3.78;;;10.30;99.90;;;10.97;68.06;101646.88;5035088;28;20459;-72
2023/03/05 10:35:31;;;;;;;6.43;4.00;;;10.70;99.90;;;10.81;65.99;101570.03;5035089;28;20099;-70